Time;durP1;ratioP1;P1;durP2;ratioP2;P2;SDS_P1;SDS_P2;PMS_P1;PMS_P2;Temp;Humidity;BMP_temperature;BMP_pressure;BME280_temperature;BME280_humidity;BME280_pressure;Samples;Min_cycle;Max_cycle;Signal;HPM_P1;HPM_P2
2023/07/27 00:00:18;;;;;;;7.53;6.23;;;;;;;;;;5106449;28;20253;-76
2023/07/27 00:02:45;;;;;;;9.33;6.20;;;;;;;;;;5101493;28;20226;-76
2023/07/27 00:05:12;;;;;;;9.87;6.30;;;;;;;;;;5101590;28;20675;-76
2023/07/27 00:07:41;;;;;;;8.90;5.60;;;;;;;;;;5108076;28;20231;-76
2023/07/27 00:10:08;;;;;;;9.00;6.13;;;;;;;;;;5106348;28;20203;-76
2023/07/27 00:12:35;;;;;;;7.97;4.93;;;;;;;;;;5100162;28;20191;-77
2023/07/27 00:15:02;;;;;;;6.87;5.50;;;;;;;;;;5102350;28;20200;-77
2023/07/27 00:17:28;;;;;;;7.67;4.70;;;;;;;;;;5093795;28;20666;-76
2023/07/27 00:19:55;;;;;;;6.00;5.23;;;;;;;;;;5093925;28;20192;-77
2023/07/27 00:22:22;;;;;;;6.50;4.93;;;;;;;;;;5101511;28;20617;-76
2023/07/27 00:24:50;;;;;;;5.87;5.27;;;;;;;;;;5114617;28;20199;-77
2023/07/27 00:27:17;;;;;;;4.97;4.47;;;;;;;;;;5098807;28;20195;-76
2023/07/27 00:29:44;;;;;;;6.27;4.97;;;;;;;;;;5100121;28;20647;-76
2023/07/27 00:32:10;;;;;;;5.00;4.50;;;;;;;;;;5105720;28;20196;-78
2023/07/27 00:34:37;;;;;;;7.47;4.23;;;;;;;;;;5108740;28;20200;-76
2023/07/27 00:37:04;;;;;;;5.40;4.77;;;;;;;;;;5101711;28;20199;-77
2023/07/27 00:39:31;;;;;;;5.13;4.37;;;;;;;;;;5112771;28;20202;-76
2023/07/27 00:41:59;;;;;;;6.27;4.40;;;;;;;;;;5101806;28;20196;-77
2023/07/27 00:44:26;;;;;;;4.93;4.00;;;;;;;;;;5110803;28;20207;-76
2023/07/27 00:46:53;;;;;;;5.10;4.43;;;;;;;;;;5100784;28;20200;-76
2023/07/27 00:49:20;;;;;;;5.87;4.00;;;;;;;;;;5111409;28;20711;-77
2023/07/27 00:51:47;;;;;;;5.07;4.03;;;;;;;;;;5101512;28;20693;-77
2023/07/27 00:54:15;;;;;;;6.00;3.87;;;;;;;;;;5112481;28;20207;-77
2023/07/27 00:56:42;;;;;;;4.20;3.80;;;;;;;;;;5103108;28;20192;-76
2023/07/27 00:59:10;;;;;;;4.30;3.93;;;;;;;;;;5110800;28;20203;-77
2023/07/27 01:01:37;;;;;;;5.10;4.60;;;;;;;;;;5093134;28;20220;-76
2023/07/27 01:04:04;;;;;;;4.40;3.87;;;;;;;;;;5105858;28;20199;-76
2023/07/27 01:06:31;;;;;;;6.70;3.97;;;;;;;;;;5102616;28;20278;-76
2023/07/27 01:08:58;;;;;;;4.13;3.83;;;;;;;;;;5100934;28;20220;-77
2023/07/27 01:11:29;;;;;;;4.57;3.73;;;;;;;;;;5113164;28;20346;-77
2023/07/27 01:14:00;;;;;;;5.30;4.10;;;;;;;;;;5112933;28;20662;-76
2023/07/27 01:16:32;;;;;;;5.90;3.80;;;;;;;;;;5113008;28;20268;-76
2023/07/27 01:19:06;;;;;;;4.53;4.13;;;;;;;;;;5106703;28;20203;-76
2023/07/27 01:21:36;;;;;;;5.97;3.70;;;;;;;;;;5105262;28;20689;-76
2023/07/27 01:24:30;;;;;;;4.33;3.83;;;;;;;;;;5112500;28;20202;-76
2023/07/27 01:27:07;;;;;;;5.57;4.10;;;;;;;;;;5101448;28;20207;-76
2023/07/27 01:29:48;;;;;;;4.37;3.83;;;;;;;;;;5099998;28;20663;-77
2023/07/27 01:32:17;;;;;;;4.90;3.73;;;;;;;;;;5099642;28;20202;-77
2023/07/27 01:34:46;;;;;;;3.27;3.00;;;;;;;;;;5111465;28;20221;-77
2023/07/27 01:37:14;;;;;;;5.27;3.77;;;;;;;;;;5101544;28;20204;-77
2023/07/27 01:39:43;;;;;;;4.67;4.00;;;;;;;;;;5098861;28;20219;-77
2023/07/27 01:42:13;;;;;;;3.77;3.20;;;;;;;;;;5112398;28;20278;-77
2023/07/27 01:44:40;;;;;;;5.60;3.53;;;;;;;;;;5098106;28;20196;-77
2023/07/27 01:47:08;;;;;;;4.23;3.83;;;;;;;;;;5103318;28;20196;-77
2023/07/27 01:49:39;;;;;;;4.67;4.27;;;;;;;;;;5091835;28;20231;-77
2023/07/27 01:52:07;;;;;;;4.27;3.87;;;;;;;;;;5091672;28;20227;-77
2023/07/27 01:54:35;;;;;;;4.30;3.83;;;;;;;;;;5111078;28;20195;-76
2023/07/27 01:57:03;;;;;;;5.30;3.90;;;;;;;;;;5112463;28;20203;-77
2023/07/27 01:59:30;;;;;;;4.37;3.97;;;;;;;;;;5098922;28;20195;-77
2023/07/27 02:01:58;;;;;;;4.20;3.80;;;;;;;;;;5111995;28;20665;-77
2023/07/27 02:04:25;;;;;;;4.40;4.00;;;;;;;;;;5107249;28;20196;-77
2023/07/27 02:06:53;;;;;;;4.47;4.13;;;;;;;;;;5103887;28;20210;-77
2023/07/27 02:09:20;;;;;;;4.10;3.80;;;;;;;;;;5097972;28;20590;-77
2023/07/27 02:11:48;;;;;;;4.53;3.83;;;;;;;;;;5112060;28;20202;-77
2023/07/27 02:14:22;;;;;;;4.80;4.33;;;;;;;;;;5097865;28;20573;-76
2023/07/27 02:16:54;;;;;;;5.77;4.53;;;;;;;;;;5111189;28;20207;-77
2023/07/27 02:19:24;;;;;;;5.63;4.30;;;;;;;;;;5091543;28;20281;-77
2023/07/27 02:21:53;;;;;;;5.23;4.67;;;;;;;;;;5106855;28;20206;-78
2023/07/27 02:24:19;;;;;;;4.97;4.53;;;;;;;;;;5101607;28;20203;-76
2023/07/27 02:26:46;;;;;;;4.27;3.87;;;;;;;;;;5097452;28;20258;-77
2023/07/27 02:29:13;;;;;;;5.03;4.20;;;;;;;;;;5102071;28;20602;-77
2023/07/27 02:31:40;;;;;;;5.00;3.63;;;;;;;;;;5104775;28;20203;-77
2023/07/27 02:34:07;;;;;;;5.57;3.60;;;;;;;;;;5100055;28;20202;-77
2023/07/27 02:36:33;;;;;;;4.43;4.03;;;;;;;;;;5101764;28;20188;-77
2023/07/27 02:39:02;;;;;;;4.20;3.80;;;;;;;;;;5102240;28;20200;-77
2023/07/27 02:41:29;;;;;;;4.87;3.73;;;;;;;;;;5091189;28;20200;-77
2023/07/27 02:43:55;;;;;;;3.90;3.60;;;;;;;;;;5102819;28;20192;-77
2023/07/27 02:46:22;;;;;;;4.23;3.93;;;;;;;;;;5107570;28;20199;-77
2023/07/27 02:48:49;;;;;;;6.13;4.37;;;;;;;;;;5098269;28;20211;-77
2023/07/27 02:51:16;;;;;;;6.23;5.10;;;;;;;;;;5096282;28;20211;-77
2023/07/27 02:53:42;;;;;;;6.00;4.10;;;;;;;;;;5101068;28;20196;-77
2023/07/27 02:56:11;;;;;;;4.73;4.10;;;;;;;;;;5108165;28;20188;-77
2023/07/27 02:58:37;;;;;;;4.33;3.90;;;;;;;;;;5099744;28;20273;-77
2023/07/27 03:01:04;;;;;;;4.00;3.70;;;;;;;;;;5107785;28;20199;-77
2023/07/27 03:03:31;;;;;;;4.50;4.10;;;;;;;;;;5111463;28;20206;-77
2023/07/27 03:05:58;;;;;;;4.00;3.70;;;;;;;;;;5092358;28;20196;-77
2023/07/27 03:08:25;;;;;;;5.00;3.83;;;;;;;;;;5102065;28;20195;-78
2023/07/27 03:10:52;;;;;;;4.20;3.80;;;;;;;;;;5091900;28;20200;-77
2023/07/27 03:13:20;;;;;;;4.37;3.83;;;;;;;;;;5102869;28;20664;-77
2023/07/27 03:15:47;;;;;;;5.47;3.13;;;;;;;;;;5111080;28;20192;-77
2023/07/27 03:18:14;;;;;;;4.70;3.77;;;;;;;;;;5098029;28;20196;-77
2023/07/27 03:20:41;;;;;;;3.97;3.63;;;;;;;;;;5097138;28;20230;-77
2023/07/27 03:23:09;;;;;;;5.57;3.80;;;;;;;;;;5111403;28;20200;-77
2023/07/27 03:25:36;;;;;;;5.33;4.07;;;;;;;;;;5105130;28;20204;-77
2023/07/27 03:28:03;;;;;;;3.73;3.43;;;;;;;;;;5090852;28;20196;-77
2023/07/27 03:30:32;;;;;;;4.30;3.90;;;;;;;;;;5095925;28;20223;-77
2023/07/27 03:32:58;;;;;;;3.80;3.50;;;;;;;;;;5111244;28;20203;-77
2023/07/27 03:35:25;;;;;;;4.87;3.30;;;;;;;;;;5091265;28;20674;-77
2023/07/27 03:37:52;;;;;;;5.77;3.53;;;;;;;;;;5104196;28;20195;-77
2023/07/27 03:40:20;;;;;;;4.37;3.97;;;;;;;;;;5090697;28;20579;-77
2023/07/27 03:42:47;;;;;;;4.07;3.33;;;;;;;;;;5092308;28;20200;-77
2023/07/27 03:45:14;;;;;;;4.87;3.40;;;;;;;;;;5102095;28;20200;-77
2023/07/27 03:47:42;;;;;;;4.53;3.90;;;;;;;;;;5092323;28;20196;-77
2023/07/27 03:50:09;;;;;;;9.20;3.40;;;;;;;;;;5111072;28;20220;-77
2023/07/27 03:52:36;;;;;;;5.27;3.73;;;;;;;;;;5097372;28;20224;-77
2023/07/27 03:55:03;;;;;;;3.80;3.50;;;;;;;;;;5103049;28;20566;-77
2023/07/27 03:57:30;;;;;;;2.83;2.63;;;;;;;;;;5101388;28;20199;-77
2023/07/27 03:59:58;;;;;;;6.30;3.30;;;;;;;;;;5090380;28;20193;-78
2023/07/27 04:02:25;;;;;;;3.97;3.07;;;;;;;;;;5102511;28;20200;-77
2023/07/27 04:04:53;;;;;;;4.23;3.10;;;;;;;;;;5101297;28;20222;-77
2023/07/27 04:07:20;;;;;;;3.53;3.23;;;;;;;;;;5103204;28;20265;-77
2023/07/27 04:09:48;;;;;;;2.87;2.63;;;;;;;;;;5105061;28;20592;-77
2023/07/27 04:12:14;;;;;;;3.37;3.13;;;;;;;;;;5109676;28;20195;-77
2023/07/27 04:14:41;;;;;;;4.07;3.73;;;;;;;;;;5104112;28;20205;-77
2023/07/27 04:17:09;;;;;;;3.00;2.70;;;;;;;;;;5113950;28;20192;-77
2023/07/27 04:19:36;;;;;;;3.83;3.53;;;;;;;;;;5104305;28;20200;-77
2023/07/27 04:22:05;;;;;;;3.47;3.17;;;;;;;;;;5107975;28;20195;-77
2023/07/27 04:24:31;;;;;;;5.03;3.30;;;;;;;;;;5105232;28;20666;-77
2023/07/27 04:26:58;;;;;;;4.07;3.17;;;;;;;;;;5101920;28;20614;-77
2023/07/27 04:29:26;;;;;;;3.00;2.80;;;;;;;;;;5102373;28;20231;-77
2023/07/27 04:31:53;;;;;;;3.33;2.97;;;;;;;;;;5106047;28;20196;-77
2023/07/27 04:34:20;;;;;;;3.33;3.00;;;;;;;;;;5104822;28;20207;-77
2023/07/27 04:36:48;;;;;;;5.50;2.90;;;;;;;;;;5101440;28;20229;-77
2023/07/27 04:39:17;;;;;;;5.90;2.90;;;;;;;;;;5113920;28;20196;-77
2023/07/27 04:41:43;;;;;;;3.53;3.23;;;;;;;;;;5100834;28;20202;-77
2023/07/27 04:44:10;;;;;;;3.67;2.83;;;;;;;;;;5101836;28;20254;-77
2023/07/27 04:46:38;;;;;;;4.33;2.60;;;;;;;;;;5108987;28;20192;-77
2023/07/27 04:49:06;;;;;;;4.63;2.87;;;;;;;;;;5104394;28;20210;-77
2023/07/27 04:51:33;;;;;;;3.80;3.50;;;;;;;;;;5107382;28;20220;-77
2023/07/27 04:54:00;;;;;;;3.47;3.00;;;;;;;;;;5105565;28;20195;-77
2023/07/27 04:56:28;;;;;;;3.43;3.13;;;;;;;;;;5099135;28;20199;-77
2023/07/27 04:58:55;;;;;;;4.30;2.80;;;;;;;;;;5113277;28;20199;-77
2023/07/27 05:01:21;;;;;;;6.33;3.30;;;;;;;;;;5093491;28;20192;-78
2023/07/27 05:03:48;;;;;;;3.30;3.00;;;;;;;;;;5093027;28;20203;-77
2023/07/27 05:06:15;;;;;;;3.63;3.33;;;;;;;;;;5112141;28;20571;-78
2023/07/27 05:08:42;;;;;;;3.40;3.10;;;;;;;;;;5098733;28;20207;-78
2023/07/27 05:11:10;;;;;;;5.07;2.87;;;;;;;;;;5101299;28;20226;-78
2023/07/27 05:13:38;;;;;;;4.17;3.00;;;;;;;;;;5099447;28;20227;-78
2023/07/27 05:16:05;;;;;;;3.00;2.73;;;;;;;;;;5112675;28;20215;-78
2023/07/27 05:18:32;;;;;;;3.37;3.07;;;;;;;;;;5099280;28;20659;-78
2023/07/27 05:20:59;;;;;;;4.03;3.43;;;;;;;;;;5112987;28;20206;-78
2023/07/27 05:23:26;;;;;;;2.80;2.60;;;;;;;;;;5099842;28;20199;-78
2023/07/27 05:25:53;;;;;;;6.10;3.10;;;;;;;;;;5113464;28;20222;-78
2023/07/27 05:28:20;;;;;;;4.83;2.83;;;;;;;;;;5110567;28;20199;-77
2023/07/27 05:30:48;;;;;;;4.27;2.77;;;;;;;;;;5101376;28;20247;-76
2023/07/27 05:33:15;;;;;;;3.23;2.93;;;;;;;;;;5097638;28;20197;-77
2023/07/27 05:35:41;;;;;;;3.40;3.03;;;;;;;;;;5092482;28;20189;-77
2023/07/27 05:38:08;;;;;;;3.20;2.77;;;;;;;;;;5092602;28;20196;-77
2023/07/27 05:40:37;;;;;;;2.90;2.10;;;;;;;;;;5112655;28;20661;-77
2023/07/27 05:43:04;;;;;;;6.03;2.60;;;;;;;;;;5112668;28;20203;-77
2023/07/27 05:45:31;;;;;;;2.67;2.20;;;;;;;;;;5112308;28;20679;-77
2023/07/27 05:48:00;;;;;;;2.40;2.20;;;;;;;;;;5100937;28;20196;-77
2023/07/27 05:50:26;;;;;;;3.50;2.13;;;;;;;;;;5101243;28;20220;-77
2023/07/27 05:52:53;;;;;;;2.00;1.90;;;;;;;;;;5109824;28;20196;-77
2023/07/27 05:55:20;;;;;;;2.53;2.23;;;;;;;;;;5102120;28;20196;-77
2023/07/27 05:57:47;;;;;;;1.60;1.50;;;;;;;;;;5109900;28;20201;-77
2023/07/27 06:00:14;;;;;;;4.60;1.80;;;;;;;;;;5100881;28;20284;-77
2023/07/27 06:02:41;;;;;;;3.10;1.50;;;;;;;;;;5104081;28;20581;-77
2023/07/27 06:05:11;;;;;;;3.33;1.33;;;;;;;;;;5092377;28;20196;-77
2023/07/27 06:07:37;;;;;;;3.87;1.40;;;;;;;;;;5110819;28;20244;-77
2023/07/27 06:10:05;;;;;;;2.73;1.50;;;;;;;;;;5112547;28;20215;-77
2023/07/27 06:12:32;;;;;;;1.93;1.23;;;;;;;;;;5105820;28;20192;-77
2023/07/27 06:14:59;;;;;;;1.33;1.23;;;;;;;;;;5104796;28;20682;-77
2023/07/27 06:17:28;;;;;;;7.10;1.77;;;;;;;;;;5111887;28;20203;-77
2023/07/27 06:19:54;;;;;;;3.10;1.13;;;;;;;;;;5098950;28;20257;-77
2023/07/27 06:22:23;;;;;;;1.70;1.30;;;;;;;;;;5105677;28;20188;-77
2023/07/27 06:24:49;;;;;;;3.97;1.57;;;;;;;;;;5091582;28;20196;-77
2023/07/27 06:27:17;;;;;;;1.23;1.10;;;;;;;;;;5098297;28;20670;-77
2023/07/27 06:29:44;;;;;;;1.20;1.10;;;;;;;;;;5111962;28;20217;-77
2023/07/27 06:32:10;;;;;;;1.40;1.30;;;;;;;;;;5111979;28;20195;-77
2023/07/27 06:34:37;;;;;;;1.90;1.00;;;;;;;;;;5098226;28;20196;-77
2023/07/27 06:37:05;;;;;;;1.13;1.03;;;;;;;;;;5091265;28;20208;-77
2023/07/27 06:39:33;;;;;;;0.83;0.83;;;;;;;;;;5102469;28;20692;-77
2023/07/27 06:42:00;;;;;;;0.80;0.80;;;;;;;;;;5091852;28;20197;-77
2023/07/27 06:44:27;;;;;;;0.90;0.90;;;;;;;;;;5104743;28;20199;-77
2023/07/27 06:46:54;;;;;;;1.10;0.97;;;;;;;;;;5091446;28;20212;-77
2023/07/27 06:49:20;;;;;;;0.90;0.90;;;;;;;;;;5101744;28;20208;-77
2023/07/27 06:51:47;;;;;;;3.03;1.03;;;;;;;;;;5090733;28;20232;-77
2023/07/27 06:54:14;;;;;;;4.37;1.10;;;;;;;;;;5103362;28;20668;-77
2023/07/27 06:56:42;;;;;;;1.17;1.10;;;;;;;;;;5111903;28;20218;-78
2023/07/27 06:59:09;;;;;;;0.90;0.90;;;;;;;;;;5111173;28;20286;-77
2023/07/27 07:01:36;;;;;;;3.23;1.20;;;;;;;;;;5101986;28;20203;-77
2023/07/27 07:04:03;;;;;;;1.27;0.90;;;;;;;;;;5104001;28;20663;-77
2023/07/27 07:06:31;;;;;;;1.03;1.03;;;;;;;;;;5101710;28;20256;-77
2023/07/27 07:08:58;;;;;;;2.67;1.10;;;;;;;;;;5093646;28;20735;-77
2023/07/27 07:11:25;;;;;;;4.67;1.40;;;;;;;;;;5091205;28;20228;-77
2023/07/27 07:13:53;;;;;;;3.57;1.50;;;;;;;;;;5104419;28;20196;-77
2023/07/27 07:16:20;;;;;;;1.77;1.33;;;;;;;;;;5101414;28;20199;-77
2023/07/27 07:18:47;;;;;;;2.27;1.27;;;;;;;;;;5110673;28;20195;-76
2023/07/27 07:21:14;;;;;;;1.23;1.17;;;;;;;;;;5100578;28;20609;-77
2023/07/27 07:23:41;;;;;;;1.63;1.40;;;;;;;;;;5090592;28;20287;-77
2023/07/27 07:26:08;;;;;;;0.90;0.90;;;;;;;;;;5102444;28;20203;-77
2023/07/27 07:28:35;;;;;;;1.73;1.10;;;;;;;;;;5106472;28;20192;-77
2023/07/27 07:31:03;;;;;;;1.50;0.90;;;;;;;;;;5102180;28;20569;-77
2023/07/27 07:33:30;;;;;;;1.10;1.10;;;;;;;;;;5111241;28;20188;-77
2023/07/27 07:35:57;;;;;;;0.90;0.90;;;;;;;;;;5100374;28;20590;-76
2023/07/27 07:38:24;;;;;;;1.83;1.10;;;;;;;;;;5098074;28;20263;-77
2023/07/27 07:40:51;;;;;;;0.83;0.83;;;;;;;;;;5111767;28;20205;-78
2023/07/27 07:43:18;;;;;;;1.17;1.10;;;;;;;;;;5108903;28;20253;-77
2023/07/27 07:45:44;;;;;;;1.10;1.00;;;;;;;;;;5107953;28;20249;-76
2023/07/27 07:48:13;;;;;;;1.07;1.07;;;;;;;;;;5114464;28;20188;-77
2023/07/27 07:50:39;;;;;;;4.33;1.00;;;;;;;;;;5102232;28;21836;-77
2023/07/27 07:53:06;;;;;;;2.80;1.20;;;;;;;;;;5113802;28;20187;-77
2023/07/27 07:55:36;;;;;;;1.30;1.20;;;;;;;;;;5114845;28;20226;-77
2023/07/27 07:58:03;;;;;;;14.20;2.30;;;;;;;;;;5108522;28;20253;-76
2023/07/27 08:00:30;;;;;;;2.20;1.10;;;;;;;;;;5107699;28;20685;-77
2023/07/27 08:02:56;;;;;;;2.40;1.10;;;;;;;;;;5114458;28;20203;-77
2023/07/27 08:05:25;;;;;;;1.10;1.10;;;;;;;;;;5114405;28;20195;-77
2023/07/27 08:07:55;;;;;;;0.80;0.80;;;;;;;;;;5103447;28;20203;-77
2023/07/27 08:10:22;;;;;;;3.73;0.90;;;;;;;;;;5113446;28;20219;-77
2023/07/27 08:12:49;;;;;;;1.93;1.30;;;;;;;;;;5102294;28;20198;-77
2023/07/27 08:15:17;;;;;;;3.30;1.67;;;;;;;;;;5109350;28;20568;-77
2023/07/27 08:17:44;;;;;;;2.80;0.83;;;;;;;;;;5108046;28;20203;-77
2023/07/27 08:20:12;;;;;;;1.23;0.70;;;;;;;;;;5109967;28;20218;-77
2023/07/27 08:22:40;;;;;;;1.00;1.00;;;;;;;;;;5108179;28;20184;-77
2023/07/27 08:25:07;;;;;;;4.70;1.30;;;;;;;;;;5109568;28;20207;-77
2023/07/27 08:27:35;;;;;;;3.20;1.00;;;;;;;;;;5104904;28;20202;-77
2023/07/27 08:30:02;;;;;;;4.70;0.87;;;;;;;;;;5110038;28;20621;-76
2023/07/27 08:32:29;;;;;;;1.10;1.00;;;;;;;;;;5113683;28;20678;-79
2023/07/27 08:34:56;;;;;;;6.97;1.00;;;;;;;;;;5111563;28;20576;-76
2023/07/27 08:37:23;;;;;;;4.40;1.40;;;;;;;;;;5103749;28;20562;-77
2023/07/27 08:39:51;;;;;;;4.03;0.93;;;;;;;;;;5096842;28;20250;-77
2023/07/27 08:42:19;;;;;;;1.83;1.03;;;;;;;;;;5103995;28;20199;-77
2023/07/27 08:44:46;;;;;;;8.63;2.50;;;;;;;;;;5114079;28;20192;-77
2023/07/27 08:47:13;;;;;;;3.00;1.63;;;;;;;;;;5103464;28;20223;-77
2023/07/27 08:49:41;;;;;;;1.40;1.30;;;;;;;;;;5110936;28;20198;-77
2023/07/27 08:52:08;;;;;;;4.67;1.33;;;;;;;;;;5104508;28;20254;-77
2023/07/27 08:54:35;;;;;;;2.33;1.50;;;;;;;;;;5093124;28;20200;-76
2023/07/27 08:57:03;;;;;;;2.40;1.30;;;;;;;;;;5104137;28;20661;-77
2023/07/27 08:59:30;;;;;;;1.13;1.03;;;;;;;;;;5093967;28;20755;-76
2023/07/27 09:01:57;;;;;;;1.47;1.10;;;;;;;;;;5093547;28;20620;-77
2023/07/27 09:04:26;;;;;;;1.20;1.10;;;;;;;;;;5108337;28;20608;-76
2023/07/27 09:06:53;;;;;;;1.53;1.10;;;;;;;;;;5107001;28;20198;-76
2023/07/27 09:09:23;;;;;;;2.27;1.43;;;;;;;;;;5094318;28;20192;-76
2023/07/27 09:11:50;;;;;;;2.87;1.67;;;;;;;;;;5106868;28;20223;-77
2023/07/27 09:14:19;;;;;;;3.73;1.67;;;;;;;;;;5092834;28;20637;-76
2023/07/27 09:16:46;;;;;;;6.20;1.20;;;;;;;;;;5093735;28;20224;-77
2023/07/27 09:19:13;;;;;;;1.20;1.10;;;;;;;;;;5112377;28;20192;-76
2023/07/27 09:21:41;;;;;;;0.90;0.90;;;;;;;;;;5113627;28;20272;-77
2023/07/27 09:24:11;;;;;;;2.53;1.30;;;;;;;;;;5104181;28;20200;-77
2023/07/27 09:26:48;;;;;;;6.30;1.60;;;;;;;;;;5107329;28;20192;-77
2023/07/27 09:29:16;;;;;;;3.43;1.43;;;;;;;;;;5092628;28;20195;-76
2023/07/27 09:31:49;;;;;;;2.47;1.57;;;;;;;;;;5106268;28;20220;-76
2023/07/27 09:34:17;;;;;;;1.73;1.63;;;;;;;;;;5104219;28;20673;-76
2023/07/27 09:36:44;;;;;;;0.93;0.90;;;;;;;;;;5102161;28;20188;-77
2023/07/27 09:39:10;;;;;;;1.00;1.00;;;;;;;;;;5101507;28;20196;-77
2023/07/27 09:41:37;;;;;;;0.90;0.90;;;;;;;;;;5097579;28;20199;-77
2023/07/27 09:44:04;;;;;;;1.67;1.10;;;;;;;;;;5101910;28;20196;-76
2023/07/27 09:46:31;;;;;;;1.57;1.00;;;;;;;;;;5097740;28;20191;-77
2023/07/27 09:49:00;;;;;;;1.90;1.17;;;;;;;;;;5112976;28;20294;-77
2023/07/27 09:51:27;;;;;;;1.33;1.33;;;;;;;;;;5112337;28;20223;-77
2023/07/27 09:53:54;;;;;;;3.97;1.00;;;;;;;;;;5102733;28;20278;-78
2023/07/27 09:56:22;;;;;;;4.20;0.97;;;;;;;;;;5106720;28;20249;-76
2023/07/27 09:58:49;;;;;;;1.10;1.00;;;;;;;;;;5091919;28;20203;-77
2023/07/27 10:01:16;;;;;;;1.30;1.20;;;;;;;;;;5093584;28;20210;-78
2023/07/27 10:03:45;;;;;;;1.00;0.90;;;;;;;;;;5112510;28;20222;-78
2023/07/27 10:06:13;;;;;;;1.53;1.40;;;;;;;;;;5098268;28;20632;-77
2023/07/27 10:08:41;;;;;;;3.70;1.10;;;;;;;;;;5098249;28;20239;-78
2023/07/27 10:11:07;;;;;;;0.87;0.87;;;;;;;;;;5112128;28;20222;-77
2023/07/27 10:13:43;;;;;;;1.23;1.00;;;;;;;;;;5098944;28;20200;-77
2023/07/27 10:16:12;;;;;;;1.57;1.00;;;;;;;;;;5102900;28;20227;-77
2023/07/27 10:18:45;;;;;;;1.30;1.20;;;;;;;;;;5094526;28;20191;-78
2023/07/27 10:21:28;;;;;;;4.67;1.77;;;;;;;;;;5112200;28;20570;-77
2023/07/27 10:23:57;;;;;;;1.30;1.20;;;;;;;;;;5092086;28;20222;-77
2023/07/27 10:26:50;;;;;;;2.97;1.50;;;;;;;;;;5104174;28;20210;-78
2023/07/27 10:29:19;;;;;;;1.63;1.53;;;;;;;;;;5093179;28;20195;-78
2023/07/27 10:31:46;;;;;;;1.67;1.57;;;;;;;;;;5099833;28;20218;-78
2023/07/27 10:34:16;;;;;;;1.73;1.63;;;;;;;;;;5100408;28;20660;-78
2023/07/27 10:36:52;;;;;;;1.47;1.37;;;;;;;;;;5109101;28;20191;-78
2023/07/27 10:39:25;;;;;;;3.20;1.77;;;;;;;;;;5111529;28;20259;-78
2023/07/27 10:42:05;;;;;;;1.50;1.40;;;;;;;;;;5111707;28;20278;-77
2023/07/27 10:44:48;;;;;;;1.63;1.20;;;;;;;;;;5108594;28;20196;-78
2023/07/27 10:47:17;;;;;;;13.47;1.90;;;;;;;;;;5091639;28;20200;-77
2023/07/27 10:49:45;;;;;;;2.63;1.63;;;;;;;;;;5110222;28;20249;-77
2023/07/27 10:52:17;;;;;;;6.10;1.87;;;;;;;;;;5101179;28;20242;-77
2023/07/27 10:54:44;;;;;;;1.67;1.47;;;;;;;;;;5107538;28;20219;-78
2023/07/27 10:57:12;;;;;;;3.30;1.30;;;;;;;;;;5111438;28;20260;-77
2023/07/27 10:59:40;;;;;;;7.90;1.30;;;;;;;;;;5110206;28;20190;-78
2023/07/27 11:02:17;;;;;;;2.90;1.40;;;;;;;;;;5111214;28;20195;-78
2023/07/27 11:04:44;;;;;;;2.67;1.30;;;;;;;;;;5098666;28;20686;-77
2023/07/27 11:07:12;;;;;;;3.90;1.50;;;;;;;;;;5110805;28;20198;-78
2023/07/27 11:09:45;;;;;;;1.00;1.00;;;;;;;;;;5096971;28;20644;-78
2023/07/27 11:12:11;;;;;;;4.70;2.23;;;;;;;;;;5102535;28;20227;-78
2023/07/27 11:14:38;;;;;;;3.60;1.07;;;;;;;;;;5116747;28;20195;-77
2023/07/27 11:17:06;;;;;;;1.60;1.10;;;;;;;;;;5118540;28;20272;-77
2023/07/27 11:19:32;;;;;;;1.20;1.10;;;;;;;;;;5118556;28;20195;-77
2023/07/27 11:22:00;;;;;;;2.80;1.50;;;;;;;;;;5104457;28;20199;-78
2023/07/27 11:24:27;;;;;;;1.53;1.20;;;;;;;;;;5111145;28;20642;-77
2023/07/27 11:26:55;;;;;;;3.17;1.00;;;;;;;;;;5098649;28;20192;-77
2023/07/27 11:29:22;;;;;;;1.83;1.07;;;;;;;;;;5117773;28;20202;-77
2023/07/27 11:31:56;;;;;;;5.40;1.77;;;;;;;;;;5104837;28;20220;-78
2023/07/27 11:34:24;;;;;;;3.23;1.13;;;;;;;;;;5117710;28;20195;-78
2023/07/27 11:36:53;;;;;;;2.17;1.27;;;;;;;;;;5103812;28;20579;-77
2023/07/27 11:39:20;;;;;;;3.30;1.30;;;;;;;;;;5118049;28;20246;-77
2023/07/27 11:41:48;;;;;;;1.10;1.10;;;;;;;;;;5117803;28;20218;-78
2023/07/27 11:44:21;;;;;;;1.97;1.17;;;;;;;;;;5105631;28;20709;-77
2023/07/27 11:46:50;;;;;;;1.60;1.50;;;;;;;;;;5103556;28;20206;-77
2023/07/27 11:49:18;;;;;;;1.67;1.33;;;;;;;;;;5117786;28;20572;-78
2023/07/27 11:51:46;;;;;;;2.00;1.40;;;;;;;;;;5110733;28;20728;-77
2023/07/27 11:54:22;;;;;;;1.30;1.30;;;;;;;;;;5110311;28;20564;-77
2023/07/27 11:56:51;;;;;;;1.53;1.17;;;;;;;;;;5108242;28;20294;-77
2023/07/27 11:59:20;;;;;;;1.43;1.33;;;;;;;;;;5114344;28;20669;-77
2023/07/27 12:01:49;;;;;;;2.53;1.60;;;;;;;;;;5106768;28;20211;-78
2023/07/27 12:04:16;;;;;;;2.17;1.70;;;;;;;;;;5111701;28;20654;-77
2023/07/27 12:06:44;;;;;;;5.80;1.70;;;;;;;;;;5097154;28;20200;-78
2023/07/27 12:09:11;;;;;;;1.87;1.43;;;;;;;;;;5112481;28;20717;-77
2023/07/27 12:11:38;;;;;;;1.63;1.50;;;;;;;;;;5109632;28;20665;-77
2023/07/27 12:14:05;;;;;;;1.53;1.40;;;;;;;;;;5100328;28;20192;-78
2023/07/27 12:16:38;;;;;;;5.53;1.60;;;;;;;;;;5096891;28;20196;-77
2023/07/27 12:19:07;;;;;;;1.90;1.80;;;;;;;;;;5110195;28;20287;-79
2023/07/27 12:21:34;;;;;;;5.63;1.63;;;;;;;;;;5110861;28;20669;-77
2023/07/27 12:24:01;;;;;;;4.20;1.60;;;;;;;;;;5103416;28;20203;-78
2023/07/27 12:26:28;;;;;;;2.33;1.97;;;;;;;;;;5102068;28;20196;-79
2023/07/27 12:28:55;;;;;;;1.97;1.63;;;;;;;;;;5093972;28;20203;-77
2023/07/27 12:31:22;;;;;;;1.60;1.50;;;;;;;;;;5093577;28;20192;-78
2023/07/27 12:33:50;;;;;;;3.30;1.50;;;;;;;;;;5099667;28;20188;-77
2023/07/27 12:36:17;;;;;;;7.03;2.07;;;;;;;;;;5114035;28;20195;-78
2023/07/27 12:38:43;;;;;;;2.03;1.93;;;;;;;;;;5114065;28;20613;-78
2023/07/27 12:41:11;;;;;;;6.67;1.80;;;;;;;;;;5112939;28;20645;-78
2023/07/27 12:43:40;;;;;;;5.67;1.93;;;;;;;;;;5093459;28;20720;-78
2023/07/27 12:46:07;;;;;;;2.67;1.70;;;;;;;;;;5107470;28;20381;-78
2023/07/27 12:48:34;;;;;;;1.63;1.53;;;;;;;;;;5093863;28;20196;-77
2023/07/27 12:51:02;;;;;;;1.57;1.50;;;;;;;;;;5109680;28;20292;-78
2023/07/27 12:53:29;;;;;;;3.83;1.70;;;;;;;;;;5113509;28;20276;-79
2023/07/27 12:55:56;;;;;;;3.13;1.60;;;;;;;;;;5099920;28;20208;-78
2023/07/27 12:58:22;;;;;;;2.77;1.40;;;;;;;;;;5103980;28;20192;-78
2023/07/27 13:00:49;;;;;;;2.57;2.37;;;;;;;;;;5093510;28;20200;-77
2023/07/27 13:03:18;;;;;;;2.67;2.00;;;;;;;;;;5103106;28;20206;-78
2023/07/27 13:05:44;;;;;;;2.67;1.80;;;;;;;;;;5098748;28;20196;-78
2023/07/27 13:08:13;;;;;;;2.10;2.00;;;;;;;;;;5102617;28;20217;-78
2023/07/27 13:10:39;;;;;;;3.70;1.83;;;;;;;;;;5099920;28;20657;-78
2023/07/27 13:13:06;;;;;;;2.03;1.70;;;;;;;;;;5113387;28;20219;-78
2023/07/27 13:15:33;;;;;;;2.00;1.90;;;;;;;;;;5109368;28;20655;-78
2023/07/27 13:18:03;;;;;;;2.00;1.77;;;;;;;;;;5102408;28;20650;-78
2023/07/27 13:20:31;;;;;;;3.93;1.87;;;;;;;;;;5099911;28;20673;-77
2023/07/27 13:22:59;;;;;;;1.80;1.70;;;;;;;;;;5101346;28;20218;-78
2023/07/27 13:25:27;;;;;;;1.70;1.60;;;;;;;;;;5092667;28;20203;-78
2023/07/27 13:27:54;;;;;;;2.47;1.80;;;;;;;;;;5092448;28;20708;-78
2023/07/27 13:30:21;;;;;;;3.43;2.30;;;;;;;;;;5092917;28;20196;-78
2023/07/27 13:32:47;;;;;;;1.97;1.83;;;;;;;;;;5105649;28;20223;-78
2023/07/27 13:35:14;;;;;;;3.10;2.10;;;;;;;;;;5112632;28;20571;-78
2023/07/27 13:37:41;;;;;;;1.83;1.70;;;;;;;;;;5112252;28;20206;-78
2023/07/27 13:40:09;;;;;;;2.10;2.00;;;;;;;;;;5112701;28;20195;-78
2023/07/27 13:42:37;;;;;;;2.33;2.13;;;;;;;;;;5113025;28;20195;-79
2023/07/27 13:45:04;;;;;;;2.93;2.63;;;;;;;;;;5092776;28;20192;-78
2023/07/27 13:47:31;;;;;;;5.03;2.23;;;;;;;;;;5092960;28;20211;-78
2023/07/27 13:49:58;;;;;;;2.67;2.47;;;;;;;;;;5099533;28;20214;-77
2023/07/27 13:52:26;;;;;;;2.67;2.43;;;;;;;;;;5098849;28;20236;-77
2023/07/27 13:54:53;;;;;;;1.80;1.70;;;;;;;;;;5098623;28;20203;-77
2023/07/27 13:57:20;;;;;;;2.97;2.30;;;;;;;;;;5102618;28;20196;-78
2023/07/27 13:59:48;;;;;;;2.60;2.00;;;;;;;;;;5112811;28;20202;-78
2023/07/27 14:02:15;;;;;;;1.97;1.80;;;;;;;;;;5110969;28;20200;-77
2023/07/27 14:04:42;;;;;;;1.93;1.83;;;;;;;;;;5092193;28;20633;-77
2023/07/27 14:07:09;;;;;;;3.30;1.80;;;;;;;;;;5093513;28;20200;-78
2023/07/27 14:09:37;;;;;;;3.83;2.23;;;;;;;;;;5104266;28;20192;-78
2023/07/27 14:12:04;;;;;;;4.00;2.00;;;;;;;;;;5105882;28;20205;-78
2023/07/27 14:14:31;;;;;;;3.70;2.23;;;;;;;;;;5099239;28;20631;-77
2023/07/27 14:16:59;;;;;;;2.17;2.07;;;;;;;;;;5112432;28;20226;-78
2023/07/27 14:19:26;;;;;;;3.07;2.83;;;;;;;;;;5111517;28;20206;-78
2023/07/27 14:21:53;;;;;;;2.40;2.20;;;;;;;;;;5098550;28;20555;-78
2023/07/27 14:24:19;;;;;;;3.93;2.50;;;;;;;;;;5112190;28;20198;-77
2023/07/27 14:26:46;;;;;;;2.10;2.00;;;;;;;;;;5111712;28;20681;-78
2023/07/27 14:29:13;;;;;;;3.33;2.93;;;;;;;;;;5111606;28;20665;-78
2023/07/27 14:31:40;;;;;;;2.50;2.30;;;;;;;;;;5095207;28;20207;-78
2023/07/27 14:34:08;;;;;;;2.50;2.30;;;;;;;;;;5091394;28;20285;-78
2023/07/27 14:36:35;;;;;;;4.27;2.53;;;;;;;;;;5105202;28;20199;-78
2023/07/27 14:39:02;;;;;;;2.53;2.33;;;;;;;;;;5100726;28;20208;-77
2023/07/27 14:41:29;;;;;;;2.60;1.80;;;;;;;;;;5111601;28;20199;-77
2023/07/27 14:43:56;;;;;;;3.93;2.33;;;;;;;;;;5100230;28;20192;-78
2023/07/27 14:46:23;;;;;;;3.67;2.50;;;;;;;;;;5105177;28;20196;-77